sensor_id;sensor_type;location;lat;lon;timestamp;P1;durP1;ratioP1;P2;durP2;ratioP2
5333;SDS011;2689;50.954;7.116;2023-06-14T00:00:41;8.57;;;5.53;;
5333;SDS011;2689;50.954;7.116;2023-06-14T00:03:08;9.47;;;5.80;;
5333;SDS011;2689;50.954;7.116;2023-06-14T00:05:36;9.37;;;6.00;;
5333;SDS011;2689;50.954;7.116;2023-06-14T00:08:08;8.67;;;5.00;;
5333;SDS011;2689;50.954;7.116;2023-06-14T00:10:37;8.93;;;5.90;;
5333;SDS011;2689;50.954;7.116;2023-06-14T00:13:06;8.93;;;5.73;;
5333;SDS011;2689;50.954;7.116;2023-06-14T00:15:34;7.13;;;5.47;;
5333;SDS011;2689;50.954;7.116;2023-06-14T00:18:01;7.20;;;5.53;;
5333;SDS011;2689;50.954;7.116;2023-06-14T00:20:28;6.30;;;5.40;;
5333;SDS011;2689;50.954;7.116;2023-06-14T00:22:57;6.53;;;5.33;;
5333;SDS011;2689;50.954;7.116;2023-06-14T00:25:24;6.43;;;5.20;;
5333;SDS011;2689;50.954;7.116;2023-06-14T00:27:53;7.80;;;5.33;;
5333;SDS011;2689;50.954;7.116;2023-06-14T00:30:20;8.13;;;6.13;;
5333;SDS011;2689;50.954;7.116;2023-06-14T00:32:47;7.70;;;5.43;;
5333;SDS011;2689;50.954;7.116;2023-06-14T00:35:14;15.03;;;5.80;;
5333;SDS011;2689;50.954;7.116;2023-06-14T00:37:41;7.33;;;5.60;;
5333;SDS011;2689;50.954;7.116;2023-06-14T00:40:08;7.27;;;5.47;;
5333;SDS011;2689;50.954;7.116;2023-06-14T00:42:35;7.20;;;5.20;;
5333;SDS011;2689;50.954;7.116;2023-06-14T00:45:03;5.80;;;5.17;;
5333;SDS011;2689;50.954;7.116;2023-06-14T00:47:30;7.70;;;5.67;;
5333;SDS011;2689;50.954;7.116;2023-06-14T00:49:57;12.27;;;5.13;;
5333;SDS011;2689;50.954;7.116;2023-06-14T00:52:26;8.03;;;4.73;;
5333;SDS011;2689;50.954;7.116;2023-06-14T00:54:54;7.17;;;5.20;;
5333;SDS011;2689;50.954;7.116;2023-06-14T00:57:21;6.07;;;4.63;;
5333;SDS011;2689;50.954;7.116;2023-06-14T00:59:48;7.00;;;5.10;;
5333;SDS011;2689;50.954;7.116;2023-06-14T01:02:17;7.60;;;5.83;;
5333;SDS011;2689;50.954;7.116;2023-06-14T01:04:45;7.70;;;5.70;;
5333;SDS011;2689;50.954;7.116;2023-06-14T01:07:15;11.37;;;5.33;;
5333;SDS011;2689;50.954;7.116;2023-06-14T01:09:57;11.27;;;5.37;;
5333;SDS011;2689;50.954;7.116;2023-06-14T01:12:34;6.77;;;5.10;;
5333;SDS011;2689;50.954;7.116;2023-06-14T01:15:05;6.73;;;4.70;;
5333;SDS011;2689;50.954;7.116;2023-06-14T01:17:34;6.47;;;5.10;;
5333;SDS011;2689;50.954;7.116;2023-06-14T01:20:09;11.40;;;4.80;;
5333;SDS011;2689;50.954;7.116;2023-06-14T01:22:47;6.60;;;4.50;;
5333;SDS011;2689;50.954;7.116;2023-06-14T01:25:17;6.10;;;5.50;;
5333;SDS011;2689;50.954;7.116;2023-06-14T01:27:45;6.83;;;5.33;;
5333;SDS011;2689;50.954;7.116;2023-06-14T01:30:14;6.00;;;5.00;;
5333;SDS011;2689;50.954;7.116;2023-06-14T01:32:42;8.80;;;5.00;;
5333;SDS011;2689;50.954;7.116;2023-06-14T01:35:09;6.50;;;4.90;;
5333;SDS011;2689;50.954;7.116;2023-06-14T01:37:36;7.30;;;4.50;;
5333;SDS011;2689;50.954;7.116;2023-06-14T01:40:05;9.50;;;4.50;;
5333;SDS011;2689;50.954;7.116;2023-06-14T01:42:34;7.20;;;4.83;;
5333;SDS011;2689;50.954;7.116;2023-06-14T01:45:04;9.43;;;4.57;;
5333;SDS011;2689;50.954;7.116;2023-06-14T01:47:32;8.43;;;4.80;;
5333;SDS011;2689;50.954;7.116;2023-06-14T01:49:59;6.40;;;4.50;;
5333;SDS011;2689;50.954;7.116;2023-06-14T01:52:26;5.47;;;4.50;;
5333;SDS011;2689;50.954;7.116;2023-06-14T01:54:53;7.93;;;4.50;;
5333;SDS011;2689;50.954;7.116;2023-06-14T01:57:21;5.27;;;4.33;;
5333;SDS011;2689;50.954;7.116;2023-06-14T01:59:48;6.93;;;4.67;;
5333;SDS011;2689;50.954;7.116;2023-06-14T02:02:15;6.70;;;4.87;;
5333;SDS011;2689;50.954;7.116;2023-06-14T02:04:42;7.20;;;5.20;;
5333;SDS011;2689;50.954;7.116;2023-06-14T02:07:12;6.80;;;5.00;;
5333;SDS011;2689;50.954;7.116;2023-06-14T02:09:39;8.20;;;3.90;;
5333;SDS011;2689;50.954;7.116;2023-06-14T02:12:06;6.40;;;4.13;;
5333;SDS011;2689;50.954;7.116;2023-06-14T02:14:35;6.10;;;4.00;;
5333;SDS011;2689;50.954;7.116;2023-06-14T02:17:03;5.40;;;4.53;;
5333;SDS011;2689;50.954;7.116;2023-06-14T02:19:31;5.43;;;4.00;;
5333;SDS011;2689;50.954;7.116;2023-06-14T02:21:58;9.37;;;3.93;;
5333;SDS011;2689;50.954;7.116;2023-06-14T02:24:25;5.13;;;4.10;;
5333;SDS011;2689;50.954;7.116;2023-06-14T02:26:52;5.37;;;4.20;;
5333;SDS011;2689;50.954;7.116;2023-06-14T02:29:18;5.50;;;4.23;;
5333;SDS011;2689;50.954;7.116;2023-06-14T02:31:47;6.23;;;4.07;;
5333;SDS011;2689;50.954;7.116;2023-06-14T02:34:14;9.13;;;4.77;;
5333;SDS011;2689;50.954;7.116;2023-06-14T02:36:42;10.93;;;5.67;;
5333;SDS011;2689;50.954;7.116;2023-06-14T02:39:10;6.40;;;4.67;;
5333;SDS011;2689;50.954;7.116;2023-06-14T02:41:37;7.87;;;5.20;;
5333;SDS011;2689;50.954;7.116;2023-06-14T02:44:04;7.70;;;5.27;;
5333;SDS011;2689;50.954;7.116;2023-06-14T02:46:31;7.30;;;4.70;;
5333;SDS011;2689;50.954;7.116;2023-06-14T02:49:00;7.03;;;4.87;;
5333;SDS011;2689;50.954;7.116;2023-06-14T02:51:27;6.33;;;4.63;;
5333;SDS011;2689;50.954;7.116;2023-06-14T02:53:53;7.60;;;5.73;;
5333;SDS011;2689;50.954;7.116;2023-06-14T02:56:20;7.73;;;5.33;;
5333;SDS011;2689;50.954;7.116;2023-06-14T02:58:47;6.53;;;5.80;;
5333;SDS011;2689;50.954;7.116;2023-06-14T03:01:15;9.77;;;5.43;;
5333;SDS011;2689;50.954;7.116;2023-06-14T03:03:43;7.30;;;4.80;;
5333;SDS011;2689;50.954;7.116;2023-06-14T03:06:11;6.20;;;4.47;;
5333;SDS011;2689;50.954;7.116;2023-06-14T03:08:39;6.23;;;4.50;;
5333;SDS011;2689;50.954;7.116;2023-06-14T03:11:06;7.00;;;5.07;;
5333;SDS011;2689;50.954;7.116;2023-06-14T03:13:34;6.23;;;4.30;;
5333;SDS011;2689;50.954;7.116;2023-06-14T03:16:01;8.17;;;4.83;;
5333;SDS011;2689;50.954;7.116;2023-06-14T03:18:28;7.17;;;4.40;;
5333;SDS011;2689;50.954;7.116;2023-06-14T03:20:55;6.63;;;4.87;;
5333;SDS011;2689;50.954;7.116;2023-06-14T03:23:24;7.23;;;5.00;;
5333;SDS011;2689;50.954;7.116;2023-06-14T03:25:51;10.00;;;4.97;;
5333;SDS011;2689;50.954;7.116;2023-06-14T03:28:18;8.90;;;5.53;;
5333;SDS011;2689;50.954;7.116;2023-06-14T03:30:45;7.47;;;4.70;;
5333;SDS011;2689;50.954;7.116;2023-06-14T03:33:11;7.80;;;5.20;;
5333;SDS011;2689;50.954;7.116;2023-06-14T03:35:38;6.97;;;5.37;;
5333;SDS011;2689;50.954;7.116;2023-06-14T03:38:05;8.20;;;6.90;;
5333;SDS011;2689;50.954;7.116;2023-06-14T03:40:33;8.40;;;5.70;;
5333;SDS011;2689;50.954;7.116;2023-06-14T03:43:00;6.80;;;5.33;;
5333;SDS011;2689;50.954;7.116;2023-06-14T03:45:26;7.33;;;5.40;;
5333;SDS011;2689;50.954;7.116;2023-06-14T03:47:53;8.60;;;5.60;;
5333;SDS011;2689;50.954;7.116;2023-06-14T03:50:21;6.80;;;5.10;;
5333;SDS011;2689;50.954;7.116;2023-06-14T03:52:48;12.20;;;5.50;;
5333;SDS011;2689;50.954;7.116;2023-06-14T03:55:15;5.83;;;5.20;;
5333;SDS011;2689;50.954;7.116;2023-06-14T03:57:43;6.87;;;5.43;;
5333;SDS011;2689;50.954;7.116;2023-06-14T04:00:10;7.87;;;5.37;;
5333;SDS011;2689;50.954;7.116;2023-06-14T04:02:38;9.37;;;5.70;;
5333;SDS011;2689;50.954;7.116;2023-06-14T04:05:05;12.73;;;6.20;;
5333;SDS011;2689;50.954;7.116;2023-06-14T04:07:33;8.10;;;6.23;;
5333;SDS011;2689;50.954;7.116;2023-06-14T04:10:05;6.40;;;5.60;;
5333;SDS011;2689;50.954;7.116;2023-06-14T04:12:33;6.70;;;5.70;;
5333;SDS011;2689;50.954;7.116;2023-06-14T04:15:02;6.60;;;4.87;;
5333;SDS011;2689;50.954;7.116;2023-06-14T04:17:30;9.13;;;5.47;;
5333;SDS011;2689;50.954;7.116;2023-06-14T04:19:59;11.83;;;5.50;;
5333;SDS011;2689;50.954;7.116;2023-06-14T04:22:25;7.50;;;5.90;;
5333;SDS011;2689;50.954;7.116;2023-06-14T04:24:53;10.80;;;5.90;;
5333;SDS011;2689;50.954;7.116;2023-06-14T04:27:21;10.13;;;6.33;;
5333;SDS011;2689;50.954;7.116;2023-06-14T04:29:50;8.20;;;6.13;;
5333;SDS011;2689;50.954;7.116;2023-06-14T04:32:24;9.90;;;5.60;;
5333;SDS011;2689;50.954;7.116;2023-06-14T04:34:51;11.47;;;5.90;;
5333;SDS011;2689;50.954;7.116;2023-06-14T04:37:19;13.50;;;6.20;;
5333;SDS011;2689;50.954;7.116;2023-06-14T04:39:47;7.73;;;5.73;;
5333;SDS011;2689;50.954;7.116;2023-06-14T04:42:14;9.53;;;6.00;;
5333;SDS011;2689;50.954;7.116;2023-06-14T04:44:41;6.93;;;5.70;;
5333;SDS011;2689;50.954;7.116;2023-06-14T04:47:08;6.53;;;5.13;;
5333;SDS011;2689;50.954;7.116;2023-06-14T04:49:37;7.37;;;4.80;;
5333;SDS011;2689;50.954;7.116;2023-06-14T04:52:05;8.80;;;4.03;;
5333;SDS011;2689;50.954;7.116;2023-06-14T04:54:35;9.37;;;4.90;;
5333;SDS011;2689;50.954;7.116;2023-06-14T04:57:02;9.37;;;5.17;;
5333;SDS011;2689;50.954;7.116;2023-06-14T04:59:30;8.97;;;4.23;;
5333;SDS011;2689;50.954;7.116;2023-06-14T05:01:58;7.07;;;4.43;;
5333;SDS011;2689;50.954;7.116;2023-06-14T05:04:25;6.83;;;4.30;;
5333;SDS011;2689;50.954;7.116;2023-06-14T05:06:53;11.40;;;3.90;;
5333;SDS011;2689;50.954;7.116;2023-06-14T05:09:20;6.90;;;3.77;;
5333;SDS011;2689;50.954;7.116;2023-06-14T05:11:47;9.87;;;4.63;;
5333;SDS011;2689;50.954;7.116;2023-06-14T05:14:15;7.17;;;4.30;;
5333;SDS011;2689;50.954;7.116;2023-06-14T05:16:42;10.73;;;4.17;;
5333;SDS011;2689;50.954;7.116;2023-06-14T05:19:09;7.43;;;4.53;;
5333;SDS011;2689;50.954;7.116;2023-06-14T05:21:36;6.20;;;4.03;;
5333;SDS011;2689;50.954;7.116;2023-06-14T05:24:04;6.90;;;4.63;;
5333;SDS011;2689;50.954;7.116;2023-06-14T05:26:32;10.13;;;4.27;;
5333;SDS011;2689;50.954;7.116;2023-06-14T05:28:58;7.17;;;4.50;;
5333;SDS011;2689;50.954;7.116;2023-06-14T05:31:26;5.77;;;3.83;;
5333;SDS011;2689;50.954;7.116;2023-06-14T05:33:53;5.63;;;3.87;;
5333;SDS011;2689;50.954;7.116;2023-06-14T05:36:20;9.57;;;4.00;;
5333;SDS011;2689;50.954;7.116;2023-06-14T05:38:47;12.53;;;3.70;;
5333;SDS011;2689;50.954;7.116;2023-06-14T05:41:15;7.40;;;4.53;;
5333;SDS011;2689;50.954;7.116;2023-06-14T05:43:42;6.53;;;3.70;;
5333;SDS011;2689;50.954;7.116;2023-06-14T05:46:10;7.77;;;3.80;;
5333;SDS011;2689;50.954;7.116;2023-06-14T05:48:36;6.20;;;4.00;;
5333;SDS011;2689;50.954;7.116;2023-06-14T05:51:03;8.30;;;3.67;;
5333;SDS011;2689;50.954;7.116;2023-06-14T05:53:33;9.43;;;3.97;;
5333;SDS011;2689;50.954;7.116;2023-06-14T05:56:00;6.77;;;3.77;;
5333;SDS011;2689;50.954;7.116;2023-06-14T05:58:28;8.67;;;3.80;;
5333;SDS011;2689;50.954;7.116;2023-06-14T06:00:55;5.30;;;3.70;;
5333;SDS011;2689;50.954;7.116;2023-06-14T06:03:22;7.30;;;3.90;;
5333;SDS011;2689;50.954;7.116;2023-06-14T06:05:49;4.80;;;3.13;;
5333;SDS011;2689;50.954;7.116;2023-06-14T06:08:16;7.43;;;3.70;;
5333;SDS011;2689;50.954;7.116;2023-06-14T06:10:43;10.20;;;3.83;;
5333;SDS011;2689;50.954;7.116;2023-06-14T06:13:09;4.87;;;3.53;;
5333;SDS011;2689;50.954;7.116;2023-06-14T06:15:38;7.43;;;3.93;;
5333;SDS011;2689;50.954;7.116;2023-06-14T06:18:04;5.00;;;2.93;;
5333;SDS011;2689;50.954;7.116;2023-06-14T06:20:31;4.40;;;3.17;;
5333;SDS011;2689;50.954;7.116;2023-06-14T06:22:58;14.50;;;3.53;;
5333;SDS011;2689;50.954;7.116;2023-06-14T06:25:25;9.00;;;3.07;;
5333;SDS011;2689;50.954;7.116;2023-06-14T06:27:53;9.43;;;3.30;;
5333;SDS011;2689;50.954;7.116;2023-06-14T06:30:21;5.23;;;3.10;;
5333;SDS011;2689;50.954;7.116;2023-06-14T06:32:49;5.40;;;3.53;;
5333;SDS011;2689;50.954;7.116;2023-06-14T06:35:16;4.90;;;3.20;;
5333;SDS011;2689;50.954;7.116;2023-06-14T06:37:43;6.00;;;3.50;;
5333;SDS011;2689;50.954;7.116;2023-06-14T06:40:09;10.43;;;3.37;;
5333;SDS011;2689;50.954;7.116;2023-06-14T06:42:37;8.90;;;3.23;;
5333;SDS011;2689;50.954;7.116;2023-06-14T06:45:04;9.57;;;3.43;;
5333;SDS011;2689;50.954;7.116;2023-06-14T06:47:32;5.77;;;2.63;;
5333;SDS011;2689;50.954;7.116;2023-06-14T06:50:00;5.70;;;2.97;;
5333;SDS011;2689;50.954;7.116;2023-06-14T06:52:26;3.33;;;2.70;;
5333;SDS011;2689;50.954;7.116;2023-06-14T06:54:54;5.93;;;2.70;;
5333;SDS011;2689;50.954;7.116;2023-06-14T06:57:21;5.30;;;3.17;;
5333;SDS011;2689;50.954;7.116;2023-06-14T06:59:48;8.80;;;3.47;;
5333;SDS011;2689;50.954;7.116;2023-06-14T07:02:15;3.97;;;2.60;;
5333;SDS011;2689;50.954;7.116;2023-06-14T07:04:42;4.00;;;2.70;;
5333;SDS011;2689;50.954;7.116;2023-06-14T07:07:10;6.93;;;2.80;;
5333;SDS011;2689;50.954;7.116;2023-06-14T07:09:37;6.70;;;2.40;;
5333;SDS011;2689;50.954;7.116;2023-06-14T07:12:04;7.40;;;2.30;;
5333;SDS011;2689;50.954;7.116;2023-06-14T07:14:31;4.90;;;2.60;;
5333;SDS011;2689;50.954;7.116;2023-06-14T07:16:58;5.50;;;2.63;;
5333;SDS011;2689;50.954;7.116;2023-06-14T07:19:25;5.60;;;2.03;;
5333;SDS011;2689;50.954;7.116;2023-06-14T07:21:52;9.73;;;2.77;;
5333;SDS011;2689;50.954;7.116;2023-06-14T07:24:20;4.00;;;2.33;;
5333;SDS011;2689;50.954;7.116;2023-06-14T07:26:47;3.77;;;2.23;;
5333;SDS011;2689;50.954;7.116;2023-06-14T07:29:14;2.83;;;1.97;;
5333;SDS011;2689;50.954;7.116;2023-06-14T07:31:41;5.27;;;2.10;;
5333;SDS011;2689;50.954;7.116;2023-06-14T07:34:08;4.40;;;2.00;;
5333;SDS011;2689;50.954;7.116;2023-06-14T07:36:35;3.27;;;1.70;;
5333;SDS011;2689;50.954;7.116;2023-06-14T07:39:03;2.40;;;1.80;;
5333;SDS011;2689;50.954;7.116;2023-06-14T07:41:32;5.17;;;2.00;;
5333;SDS011;2689;50.954;7.116;2023-06-14T07:43:59;5.13;;;2.03;;
5333;SDS011;2689;50.954;7.116;2023-06-14T07:46:26;3.60;;;1.90;;
5333;SDS011;2689;50.954;7.116;2023-06-14T07:48:53;3.47;;;1.87;;
5333;SDS011;2689;50.954;7.116;2023-06-14T07:51:20;2.87;;;1.87;;
5333;SDS011;2689;50.954;7.116;2023-06-14T07:53:48;5.40;;;1.57;;
5333;SDS011;2689;50.954;7.116;2023-06-14T07:56:15;2.60;;;1.60;;
5333;SDS011;2689;50.954;7.116;2023-06-14T07:58:43;3.63;;;1.70;;
5333;SDS011;2689;50.954;7.116;2023-06-14T08:01:10;3.60;;;1.60;;
5333;SDS011;2689;50.954;7.116;2023-06-14T08:03:37;3.90;;;1.80;;
5333;SDS011;2689;50.954;7.116;2023-06-14T08:06:10;5.30;;;1.87;;
5333;SDS011;2689;50.954;7.116;2023-06-14T08:08:37;2.83;;;2.07;;
5333;SDS011;2689;50.954;7.116;2023-06-14T08:11:04;2.90;;;1.90;;
5333;SDS011;2689;50.954;7.116;2023-06-14T08:13:34;2.33;;;1.57;;
5333;SDS011;2689;50.954;7.116;2023-06-14T08:18:47;4.90;;;1.90;;
5333;SDS011;2689;50.954;7.116;2023-06-14T08:21:17;3.97;;;2.47;;
5333;SDS011;2689;50.954;7.116;2023-06-14T08:23:44;3.77;;;1.83;;
5333;SDS011;2689;50.954;7.116;2023-06-14T08:26:11;4.90;;;1.80;;
5333;SDS011;2689;50.954;7.116;2023-06-14T08:28:38;2.30;;;1.40;;
5333;SDS011;2689;50.954;7.116;2023-06-14T08:31:05;2.50;;;1.50;;
5333;SDS011;2689;50.954;7.116;2023-06-14T08:33:33;3.60;;;1.70;;
5333;SDS011;2689;50.954;7.116;2023-06-14T08:36:00;3.47;;;1.97;;
5333;SDS011;2689;50.954;7.116;2023-06-14T08:38:27;4.83;;;2.07;;
5333;SDS011;2689;50.954;7.116;2023-06-14T08:40:56;4.20;;;1.87;;
5333;SDS011;2689;50.954;7.116;2023-06-14T08:43:24;6.63;;;1.73;;
5333;SDS011;2689;50.954;7.116;2023-06-14T08:45:51;5.70;;;1.80;;
5333;SDS011;2689;50.954;7.116;2023-06-14T08:48:24;2.80;;;2.20;;
5333;SDS011;2689;50.954;7.116;2023-06-14T08:50:54;3.47;;;1.90;;
5333;SDS011;2689;50.954;7.116;2023-06-14T08:53:26;2.50;;;1.67;;
5333;SDS011;2689;50.954;7.116;2023-06-14T08:55:57;6.83;;;1.80;;
5333;SDS011;2689;50.954;7.116;2023-06-14T08:58:26;4.53;;;1.70;;
5333;SDS011;2689;50.954;7.116;2023-06-14T09:00:54;4.87;;;1.77;;
5333;SDS011;2689;50.954;7.116;2023-06-14T09:03:21;3.37;;;1.70;;
5333;SDS011;2689;50.954;7.116;2023-06-14T09:05:56;3.17;;;1.80;;
5333;SDS011;2689;50.954;7.116;2023-06-14T09:08:25;3.13;;;1.93;;
5333;SDS011;2689;50.954;7.116;2023-06-14T09:10:55;2.63;;;1.70;;
5333;SDS011;2689;50.954;7.116;2023-06-14T09:13:22;2.67;;;1.70;;
5333;SDS011;2689;50.954;7.116;2023-06-14T09:15:49;3.10;;;1.70;;
5333;SDS011;2689;50.954;7.116;2023-06-14T09:18:16;2.90;;;2.10;;
5333;SDS011;2689;50.954;7.116;2023-06-14T09:20:45;4.60;;;2.00;;
5333;SDS011;2689;50.954;7.116;2023-06-14T09:23:13;2.63;;;1.60;;
5333;SDS011;2689;50.954;7.116;2023-06-14T09:25:46;3.87;;;1.97;;
5333;SDS011;2689;50.954;7.116;2023-06-14T09:28:13;2.57;;;1.87;;
5333;SDS011;2689;50.954;7.116;2023-06-14T09:30:40;3.40;;;2.00;;
5333;SDS011;2689;50.954;7.116;2023-06-14T09:33:07;4.20;;;2.27;;
5333;SDS011;2689;50.954;7.116;2023-06-14T09:35:34;3.13;;;2.00;;
5333;SDS011;2689;50.954;7.116;2023-06-14T09:38:01;3.07;;;2.10;;
5333;SDS011;2689;50.954;7.116;2023-06-14T09:40:30;10.43;;;2.00;;
5333;SDS011;2689;50.954;7.116;2023-06-14T09:43:00;2.83;;;2.10;;
5333;SDS011;2689;50.954;7.116;2023-06-14T09:45:28;5.07;;;2.80;;
5333;SDS011;2689;50.954;7.116;2023-06-14T09:47:56;3.30;;;1.80;;
5333;SDS011;2689;50.954;7.116;2023-06-14T09:50:24;2.23;;;1.53;;
5333;SDS011;2689;50.954;7.116;2023-06-14T09:52:51;4.20;;;2.47;;
5333;SDS011;2689;50.954;7.116;2023-06-14T09:55:21;13.10;;;2.20;;
5333;SDS011;2689;50.954;7.116;2023-06-14T09:57:50;3.40;;;1.37;;
5333;SDS011;2689;50.954;7.116;2023-06-14T10:00:17;5.10;;;2.10;;
5333;SDS011;2689;50.954;7.116;2023-06-14T10:02:46;3.00;;;1.67;;
5333;SDS011;2689;50.954;7.116;2023-06-14T10:05:19;8.23;;;2.40;;
5333;SDS011;2689;50.954;7.116;2023-06-14T10:07:48;2.83;;;1.93;;
5333;SDS011;2689;50.954;7.116;2023-06-14T10:10:19;5.80;;;2.13;;
5333;SDS011;2689;50.954;7.116;2023-06-14T10:12:46;4.83;;;1.77;;
5333;SDS011;2689;50.954;7.116;2023-06-14T10:15:15;2.60;;;1.77;;
5333;SDS011;2689;50.954;7.116;2023-06-14T10:17:47;4.63;;;2.77;;
5333;SDS011;2689;50.954;7.116;2023-06-14T10:20:23;2.70;;;1.70;;
5333;SDS011;2689;50.954;7.116;2023-06-14T10:22:56;3.83;;;2.60;;
5333;SDS011;2689;50.954;7.116;2023-06-14T10:25:28;4.60;;;3.70;;
5333;SDS011;2689;50.954;7.116;2023-06-14T10:28:02;20.00;;;9.53;;
5333;SDS011;2689;50.954;7.116;2023-06-14T10:30:41;9.73;;;5.20;;
5333;SDS011;2689;50.954;7.116;2023-06-14T10:33:29;8.20;;;3.37;;
5333;SDS011;2689;50.954;7.116;2023-06-14T10:36:06;2.50;;;1.50;;
5333;SDS011;2689;50.954;7.116;2023-06-14T10:38:34;4.77;;;2.83;;
5333;SDS011;2689;50.954;7.116;2023-06-14T10:41:03;6.17;;;2.00;;
5333;SDS011;2689;50.954;7.116;2023-06-14T10:43:30;5.27;;;2.90;;
5333;SDS011;2689;50.954;7.116;2023-06-14T10:46:17;4.60;;;2.17;;
5333;SDS011;2689;50.954;7.116;2023-06-14T10:48:48;4.93;;;2.53;;
5333;SDS011;2689;50.954;7.116;2023-06-14T10:51:15;2.93;;;1.70;;
5333;SDS011;2689;50.954;7.116;2023-06-14T10:53:45;3.70;;;1.80;;
5333;SDS011;2689;50.954;7.116;2023-06-14T10:56:22;4.00;;;2.70;;
5333;SDS011;2689;50.954;7.116;2023-06-14T10:58:51;6.03;;;2.07;;
5333;SDS011;2689;50.954;7.116;2023-06-14T11:01:23;5.63;;;2.53;;
5333;SDS011;2689;50.954;7.116;2023-06-14T11:04:01;8.40;;;2.90;;
5333;SDS011;2689;50.954;7.116;2023-06-14T11:06:38;2.77;;;2.17;;
5333;SDS011;2689;50.954;7.116;2023-06-14T11:09:20;4.60;;;2.10;;
5333;SDS011;2689;50.954;7.116;2023-06-14T11:12:03;4.70;;;2.30;;
5333;SDS011;2689;50.954;7.116;2023-06-14T11:14:32;3.83;;;1.70;;
5333;SDS011;2689;50.954;7.116;2023-06-14T11:17:00;5.27;;;3.23;;
5333;SDS011;2689;50.954;7.116;2023-06-14T11:19:27;2.67;;;2.00;;
5333;SDS011;2689;50.954;7.116;2023-06-14T11:21:54;2.93;;;1.83;;
5333;SDS011;2689;50.954;7.116;2023-06-14T11:24:21;4.83;;;1.80;;
5333;SDS011;2689;50.954;7.116;2023-06-14T11:26:48;3.30;;;1.60;;
5333;SDS011;2689;50.954;7.116;2023-06-14T11:29:15;3.40;;;1.93;;
5333;SDS011;2689;50.954;7.116;2023-06-14T11:31:43;2.20;;;1.50;;
5333;SDS011;2689;50.954;7.116;2023-06-14T11:34:11;2.40;;;1.60;;
5333;SDS011;2689;50.954;7.116;2023-06-14T11:36:39;3.37;;;2.20;;
5333;SDS011;2689;50.954;7.116;2023-06-14T11:39:06;2.53;;;1.30;;
5333;SDS011;2689;50.954;7.116;2023-06-14T11:41:35;5.93;;;1.73;;
5333;SDS011;2689;50.954;7.116;2023-06-14T11:44:05;3.13;;;1.23;;
5333;SDS011;2689;50.954;7.116;2023-06-14T11:46:32;3.50;;;1.60;;
5333;SDS011;2689;50.954;7.116;2023-06-14T11:48:59;4.00;;;2.10;;
5333;SDS011;2689;50.954;7.116;2023-06-14T11:51:29;4.00;;;1.90;;
5333;SDS011;2689;50.954;7.116;2023-06-14T11:53:56;5.50;;;2.27;;
5333;SDS011;2689;50.954;7.116;2023-06-14T11:56:23;3.50;;;1.93;;
5333;SDS011;2689;50.954;7.116;2023-06-14T11:58:52;4.63;;;1.30;;
5333;SDS011;2689;50.954;7.116;2023-06-14T12:01:21;2.63;;;1.87;;
5333;SDS011;2689;50.954;7.116;2023-06-14T12:03:49;2.57;;;1.80;;
5333;SDS011;2689;50.954;7.116;2023-06-14T12:06:16;2.40;;;1.47;;
5333;SDS011;2689;50.954;7.116;2023-06-14T12:08:56;2.30;;;1.40;;
5333;SDS011;2689;50.954;7.116;2023-06-14T12:11:23;2.13;;;1.40;;
5333;SDS011;2689;50.954;7.116;2023-06-14T12:13:53;3.30;;;2.00;;
5333;SDS011;2689;50.954;7.116;2023-06-14T12:16:29;2.67;;;1.50;;
5333;SDS011;2689;50.954;7.116;2023-06-14T12:18:56;3.77;;;2.40;;
5333;SDS011;2689;50.954;7.116;2023-06-14T12:21:27;4.70;;;2.00;;
5333;SDS011;2689;50.954;7.116;2023-06-14T12:23:58;4.73;;;2.80;;
5333;SDS011;2689;50.954;7.116;2023-06-14T12:26:25;2.47;;;1.80;;
5333;SDS011;2689;50.954;7.116;2023-06-14T12:28:53;3.00;;;1.33;;
5333;SDS011;2689;50.954;7.116;2023-06-14T12:31:20;3.13;;;1.43;;
5333;SDS011;2689;50.954;7.116;2023-06-14T12:33:47;3.70;;;1.60;;
5333;SDS011;2689;50.954;7.116;2023-06-14T12:36:14;3.10;;;1.43;;
5333;SDS011;2689;50.954;7.116;2023-06-14T12:38:42;4.53;;;1.87;;
5333;SDS011;2689;50.954;7.116;2023-06-14T12:41:11;4.20;;;1.30;;
5333;SDS011;2689;50.954;7.116;2023-06-14T12:43:39;2.30;;;1.20;;
5333;SDS011;2689;50.954;7.116;2023-06-14T12:46:06;5.00;;;1.40;;
5333;SDS011;2689;50.954;7.116;2023-06-14T12:48:33;3.77;;;1.50;;
5333;SDS011;2689;50.954;7.116;2023-06-14T12:50:59;2.17;;;1.40;;
5333;SDS011;2689;50.954;7.116;2023-06-14T12:53:26;2.53;;;1.43;;
5333;SDS011;2689;50.954;7.116;2023-06-14T12:55:53;6.30;;;1.73;;
5333;SDS011;2689;50.954;7.116;2023-06-14T12:58:21;4.43;;;1.90;;
5333;SDS011;2689;50.954;7.116;2023-06-14T13:00:48;2.00;;;1.40;;
5333;SDS011;2689;50.954;7.116;2023-06-14T13:03:15;4.50;;;1.70;;
5333;SDS011;2689;50.954;7.116;2023-06-14T13:05:42;3.27;;;1.70;;
5333;SDS011;2689;50.954;7.116;2023-06-14T13:08:09;2.90;;;1.57;;
5333;SDS011;2689;50.954;7.116;2023-06-14T13:10:36;2.70;;;1.67;;
5333;SDS011;2689;50.954;7.116;2023-06-14T13:13:03;3.33;;;2.00;;
5333;SDS011;2689;50.954;7.116;2023-06-14T13:15:31;5.63;;;1.17;;
5333;SDS011;2689;50.954;7.116;2023-06-14T13:17:57;4.17;;;1.63;;
5333;SDS011;2689;50.954;7.116;2023-06-14T13:20:24;2.80;;;1.57;;
5333;SDS011;2689;50.954;7.116;2023-06-14T13:22:51;5.10;;;1.80;;
5333;SDS011;2689;50.954;7.116;2023-06-14T13:25:18;5.10;;;1.67;;
5333;SDS011;2689;50.954;7.116;2023-06-14T13:27:45;2.20;;;1.60;;
5333;SDS011;2689;50.954;7.116;2023-06-14T13:30:12;2.07;;;1.57;;
5333;SDS011;2689;50.954;7.116;2023-06-14T13:32:40;4.13;;;1.80;;
5333;SDS011;2689;50.954;7.116;2023-06-14T13:35:07;3.43;;;1.70;;
5333;SDS011;2689;50.954;7.116;2023-06-14T13:37:34;2.30;;;1.33;;
5333;SDS011;2689;50.954;7.116;2023-06-14T13:40:00;2.33;;;1.30;;
5333;SDS011;2689;50.954;7.116;2023-06-14T13:42:27;2.20;;;1.70;;
5333;SDS011;2689;50.954;7.116;2023-06-14T13:44:56;5.23;;;1.73;;
5333;SDS011;2689;50.954;7.116;2023-06-14T13:47:23;4.00;;;1.97;;
5333;SDS011;2689;50.954;7.116;2023-06-14T13:49:51;3.00;;;2.03;;
5333;SDS011;2689;50.954;7.116;2023-06-14T13:52:18;2.43;;;1.70;;
5333;SDS011;2689;50.954;7.116;2023-06-14T13:54:44;2.43;;;1.40;;
5333;SDS011;2689;50.954;7.116;2023-06-14T13:57:11;3.40;;;1.60;;
5333;SDS011;2689;50.954;7.116;2023-06-14T13:59:38;2.93;;;1.50;;
5333;SDS011;2689;50.954;7.116;2023-06-14T14:02:05;2.40;;;1.53;;
5333;SDS011;2689;50.954;7.116;2023-06-14T14:04:33;2.77;;;1.70;;
5333;SDS011;2689;50.954;7.116;2023-06-14T14:07:01;2.70;;;1.90;;
5333;SDS011;2689;50.954;7.116;2023-06-14T14:09:28;2.70;;;2.00;;
5333;SDS011;2689;50.954;7.116;2023-06-14T14:11:55;5.33;;;2.00;;
5333;SDS011;2689;50.954;7.116;2023-06-14T14:14:22;4.97;;;1.97;;
5333;SDS011;2689;50.954;7.116;2023-06-14T14:16:49;4.13;;;2.10;;
5333;SDS011;2689;50.954;7.116;2023-06-14T14:19:18;2.50;;;1.70;;
5333;SDS011;2689;50.954;7.116;2023-06-14T14:21:45;4.37;;;2.40;;
5333;SDS011;2689;50.954;7.116;2023-06-14T14:24:13;3.00;;;1.53;;
5333;SDS011;2689;50.954;7.116;2023-06-14T14:26:40;2.70;;;1.70;;
5333;SDS011;2689;50.954;7.116;2023-06-14T14:29:07;3.93;;;1.57;;
5333;SDS011;2689;50.954;7.116;2023-06-14T14:31:36;2.63;;;1.80;;
5333;SDS011;2689;50.954;7.116;2023-06-14T14:34:03;2.13;;;1.47;;
5333;SDS011;2689;50.954;7.116;2023-06-14T14:36:30;5.30;;;2.37;;
5333;SDS011;2689;50.954;7.116;2023-06-14T14:38:58;2.30;;;1.57;;
5333;SDS011;2689;50.954;7.116;2023-06-14T14:41:27;2.77;;;1.80;;
5333;SDS011;2689;50.954;7.116;2023-06-14T14:43:54;12.53;;;2.00;;
5333;SDS011;2689;50.954;7.116;2023-06-14T14:46:21;8.47;;;6.23;;
5333;SDS011;2689;50.954;7.116;2023-06-14T14:48:48;8.23;;;4.17;;
5333;SDS011;2689;50.954;7.116;2023-06-14T14:51:15;4.47;;;2.00;;
5333;SDS011;2689;50.954;7.116;2023-06-14T14:53:42;5.33;;;2.00;;
5333;SDS011;2689;50.954;7.116;2023-06-14T14:56:09;3.90;;;2.13;;
5333;SDS011;2689;50.954;7.116;2023-06-14T14:58:38;5.73;;;1.90;;
5333;SDS011;2689;50.954;7.116;2023-06-14T15:01:05;6.33;;;3.10;;
5333;SDS011;2689;50.954;7.116;2023-06-14T15:03:32;3.23;;;2.00;;
5333;SDS011;2689;50.954;7.116;2023-06-14T15:05:58;4.17;;;1.90;;
5333;SDS011;2689;50.954;7.116;2023-06-14T15:08:25;7.10;;;2.13;;
5333;SDS011;2689;50.954;7.116;2023-06-14T15:10:52;2.67;;;1.77;;
5333;SDS011;2689;50.954;7.116;2023-06-14T15:13:19;5.33;;;3.00;;
5333;SDS011;2689;50.954;7.116;2023-06-14T15:15:47;3.40;;;2.00;;
5333;SDS011;2689;50.954;7.116;2023-06-14T15:18:14;14.07;;;5.30;;
5333;SDS011;2689;50.954;7.116;2023-06-14T15:20:41;3.17;;;1.97;;
5333;SDS011;2689;50.954;7.116;2023-06-14T15:23:08;3.50;;;2.50;;